CDT,Max TemperatureF,Mean TemperatureF,Min TemperatureF,Max Dew PointF,MeanDew PointF,Min DewpointF,Max Humidity, Mean Humidity, Min Humidity, Max Sea Level PressureIn, Mean Sea Level PressureIn, Min Sea Level PressureIn, Max VisibilityMiles, Mean VisibilityMiles, Min VisibilityMiles, Max Wind SpeedMPH, Mean Wind SpeedMPH, Max Gust SpeedMPH,PrecipitationIn, CloudCover, Events, WindDirDegrees
2013-7-1,81,64,48,57,52,48,99,66,33,30.24,30.19,30.16,10,8,4,12,3,22,0.00,1,Rain,35
2013-7-2,82,68,53,61,55,49,99,69,33,30.18,30.14,30.09,10,9,7,12,2,,0.00,2,Rain-Thunderstorm,57
2013-7-3,84,68,53,61,55,51,100,67,33,30.10,30.03,29.95,10,8,5,9,2,,0.00,1,Rain,173
2013-7-4,87,72,57,59,56,53,92,60,31,29.97,29.92,29.86,10,10,7,24,10,32,0.00,1,Rain,187
2013-7-5,87,76,65,63,60,56,83,56,40,29.89,29.85,29.81,10,10,10,22,13,29,0.00,2,Rain,180
2013-7-6,90,79,68,66,62,58,71,57,42,29.85,29.82,29.78,10,10,10,21,13,28,0.00,0,,169
2013-7-7,88,76,65,73,66,62,93,70,51,29.96,29.87,29.83,10,10,7,22,5,31,0.00,0,Rain,146
2013-7-8,91,78,64,73,69,64,100,78,49,29.99,29.96,29.92,10,9,3,13,2,18,0.00,1,,117
2013-7-9,89,78,69,75,70,63,100,76,55,30.03,29.94,29.87,10,10,5,18,8,28,0.21,1,Rain-Thunderstorm,337
2013-7-10,80,70,59,67,63,59,100,76,48,30.14,30.08,30.03,10,9,2,12,2,16,0.00,0,,45
2013-7-11,86,72,59,63,60,57,97,65,41,30.11,30.04,29.95,10,10,10,21,7,25,0.00,0,,166
2013-7-12,90,78,67,70,65,60,83,65,50,29.98,29.93,29.88,10,10,10,24,14,32,0.00,0,,166
2013-7-13,91,81,72,73,69,65,83,69,52,29.97,29.92,29.90,10,10,10,20,13,24,0.00,0,,169
2013-7-14,82,73,64,72,66,60,96,76,48,30.17,30.07,29.97,10,10,4,18,9,26,0.09,3,Rain-Thunderstorm,153
2013-7-15,86,70,55,68,63,56,100,72,43,30.22,30.18,30.14,10,9,2,14,4,20,0.00,1,Rain,166
2013-7-16,87,75,63,68,65,60,100,73,40,30.27,30.23,30.17,10,8,4,16,7,22,0.00,0,,185
2013-7-17,89,76,64,70,67,64,99,71,44,30.30,30.25,30.17,10,9,4,17,6,22,0.00,0,,189
2013-7-18,91,78,67,70,68,65,97,69,45,30.16,30.04,29.91,10,10,7,21,9,29,0.00,0,,200
2013-7-19,88,76,63,68,63,54,91,57,32,29.98,29.94,29.88,10,10,7,16,9,18,0.00,0,Rain-Thunderstorm,302
2013-7-20,80,67,54,67,61,54,100,82,50,30.03,29.96,29.90,10,9,7,13,3,18,0.00,1,Rain,25
2013-7-21,88,74,60,71,66,61,100,77,43,29.94,29.86,29.78,10,9,3,14,3,9,0.02,2,Rain-Thunderstorm,198
2013-7-22,90,76,61,72,67,60,100,77,45,29.90,29.81,29.76,10,10,7,12,5,17,0.07,1,Thunderstorm,269
2013-7-23,79,68,58,62,60,58,100,78,49,30.04,29.98,29.90,10,10,10,15,5,18,0.00,0,Thunderstorm,52
2013-7-24,82,66,51,64,58,52,100,73,46,30.11,30.07,30.02,10,9,5,6,1,,0.00,1,,259
2013-7-25,86,74,62,68,65,61,100,83,42,30.05,30.01,29.94,10,10,5,13,4,23,0.01,3,Rain-Thunderstorm,228
2013-7-26,70,62,55,64,55,50,100,76,49,30.17,30.11,30.01,10,10,5,20,6,26,0.00,2,Rain,341
2013-7-27,70,56,43,53,47,43,100,71,37,30.17,30.12,30.05,10,10,7,14,3,18,0.00,1,,340
2013-7-28,74,56,39,52,45,39,100,66,33,30.09,30.06,30.03,10,10,10,8,2,,0.00,0,,97
2013-7-29,62,58,54,63,57,48,100,89,59,30.08,30.06,30.03,10,8,2,12,5,18,0.01,7,Rain,135
2013-7-30,73,68,60,65,64,61,100,90,72,30.14,30.09,30.06,10,7,1,6,1,,0.00,7,,18
2013-7-31,81,68,54,67,61,55,100,82,48,30.17,30.12,30.08,10,6,2,8,2,,0.00,1,Rain,331